Time;durP1;ratioP1;P1;durP2;ratioP2;P2;SDS_P1;SDS_P2;PMS_P1;PMS_P2;Temp;Humidity;BMP_temperature;BMP_pressure;BME280_temperature;BME280_humidity;BME280_pressure;Samples;Min_cycle;Max_cycle;Signal;HPM_P1;HPM_P2
2022/01/24 00:00:14;;;;;;;;;;;;;;;4.99;64.04;101189.53;6103148;23;1147;-95
2022/01/24 00:02:42;;;;;;;;;;;;;;;4.99;63.96;101192.22;6103607;23;1185;-95
2022/01/24 00:05:08;;;;;;;;;;;;;;;4.99;63.79;101183.38;6103269;23;1254;-95
2022/01/24 00:07:35;;;;;;;;;;;;;;;4.97;64.01;101191.56;6102552;23;1168;-95
2022/01/24 00:10:05;;;;;;;;;;;;;;;4.97;63.85;101194.22;6103156;23;1200;-95
2022/01/24 00:12:38;;;;;;;;;;;;;;;4.95;63.98;101196.22;6102850;23;1897;-95
2022/01/24 00:15:15;;;;;;;;;;;;;;;4.98;63.93;101190.56;6103363;23;1205;-95
2022/01/24 00:17:49;;;;;;;;;;;;;;;4.99;63.98;101194.03;6103181;23;1271;-95
2022/01/24 00:28:28;;;;;;;;;;;;;;;4.94;63.97;101175.88;6104776;23;1235;-95
2022/01/24 00:30:54;;;;;;;;;;;;;;;4.95;64.06;101179.38;6104619;23;1901;-95
2022/01/24 00:33:21;;;;;;;;;;;;;;;4.95;64.05;101195.41;6104978;23;1220;-96
2022/01/24 00:35:50;;;;;;;;;;;;;;;4.96;63.94;101186.38;6104480;23;1163;-95
2022/01/24 00:38:16;;;;;;;;;;;;;;;4.93;64.09;101178.69;6105286;23;1273;-95
2022/01/24 00:40:46;;;;;;;;;;;;;;;4.94;64.00;101186.56;6105108;23;1196;-95
2022/01/24 00:43:21;;;;;;;;;;;;;;;4.94;64.05;101197.25;6105092;23;1271;-94
2022/01/24 00:45:59;;;;;;;;;;;;;;;4.94;64.08;101201.72;6105029;23;1181;-95
2022/01/24 00:48:36;;;;;;;;;;;;;;;4.92;64.00;101199.22;6105734;23;1288;-95
2022/01/24 00:54:42;;;;;;;;;;;;;;;4.91;63.83;101202.06;6017685;23;1235;-95
2022/01/24 00:56:49;;;;;;;;;;;;;;;4.92;64.16;101206.41;6017719;23;1366;-95
2022/01/24 00:59:15;;;;;;;;;;;;;;;4.92;64.15;101211.75;6068275;23;1174;-95
2022/01/24 01:01:42;;;;;;;;;;;;;;;4.92;64.15;101206.41;6104846;23;1351;-95
2022/01/24 01:04:09;;;;;;;;;;;;;;;4.90;64.11;101205.72;6104463;23;1265;-96
2022/01/24 01:06:38;;;;;;;;;;;;;;;4.90;64.11;101219.91;6086672;23;1289;-95
2022/01/24 01:20:02;;;;;;;;;;;;;;;4.88;64.07;101165.88;6076062;23;1172;-95
2022/01/24 01:22:28;;;;;;;;;;;;;;;4.89;64.25;101166.72;6075531;23;1260;-95
2022/01/24 01:24:56;;;;;;;;;;;;;;;4.88;64.23;101175.69;6075431;23;1170;-96
2022/01/24 01:27:26;;;;;;;;;;;;;;;4.86;64.13;101170.53;6075349;23;1305;-95
2022/01/24 01:29:58;;;;;;;;;;;;;;;4.87;64.28;101160.69;6075518;23;1162;-95
2022/01/24 01:32:49;;;;;;;;;;;;;;;4.89;64.18;101161.38;6074614;23;1901;-95
2022/01/24 01:35:34;;;;;;;;;;;;;;;4.87;64.08;101169.53;6074894;23;1160;-95
2022/01/24 01:54:47;;;;;;;;;;;;;;;4.88;64.14;101155.19;5134727;27;1336;-89
2022/01/24 01:57:13;;;;;;;;;;;;;;;4.89;64.14;101148.03;5145102;27;1476;-88
2022/01/24 01:59:40;;;;;;;;;;;;;;;4.88;64.09;101139.19;5157282;27;1975;-88
2022/01/24 02:02:07;;;;;;;;;;;;;;;4.91;64.09;101141.50;5152850;27;1207;-88
2022/01/24 02:04:33;;;;;;;;;;;;;;;4.92;63.80;101153.84;5136200;27;1347;-88
2022/01/24 02:07:00;;;;;;;;;;;;;;;4.90;63.93;101147.00;5135648;27;1452;-89
2022/01/24 02:09:26;;;;;;;;;;;;;;;4.89;64.04;101143.50;5135703;27;1294;-88
2022/01/24 02:11:53;;;;;;;;;;;;;;;4.90;64.00;101144.34;5142008;27;1806;-88
2022/01/24 02:14:21;;;;;;;;;;;;;;;4.93;64.04;101144.00;5136799;27;1558;-88
2022/01/24 02:16:52;;;;;;;;;;;;;;;4.93;63.85;101131.47;5155336;27;1464;-87
2022/01/24 02:19:29;;;;;;;;;;;;;;;4.91;63.96;101125.50;5156281;27;1970;-88
2022/01/24 02:24:42;;;;;;;;;;;;;;;4.95;63.83;101128.66;5145551;27;1400;-88
2022/01/24 02:27:09;;;;;;;;;;;;;;;4.93;63.79;101130.66;5135220;27;1179;-88
2022/01/24 02:29:50;;;;;;;;;;;;;;;4.91;63.94;101129.97;5135437;27;1288;-87
2022/01/24 02:32:16;;;;;;;;;;;;;;;4.91;63.97;101128.16;5153846;27;983;-88
2022/01/24 02:34:46;;;;;;;;;;;;;;;4.91;63.97;101130.84;5135545;27;1356;-89
2022/01/24 02:37:12;;;;;;;;;;;;;;;4.91;63.95;101130.84;5149004;27;1190;-89
2022/01/24 02:50:56;;;;;;;;;;;;;;;4.92;64.02;101137.00;5151431;27;1156;-89
2022/01/24 02:53:22;;;;;;;;;;;;;;;4.91;63.98;101138.84;5135911;27;1519;-88
2022/01/24 02:55:49;;;;;;;;;;;;;;;4.90;63.95;101137.16;5121187;27;1198;-89
2022/01/24 02:58:16;;;;;;;;;;;;;;;4.91;63.95;101137.97;5121388;27;1206;-90
2022/01/24 03:00:43;;;;;;;;;;;;;;;4.89;63.99;101130.16;5120924;27;1914;-88
2022/01/24 03:03:10;;;;;;;;;;;;;;;4.89;63.97;101127.50;5121039;27;1163;-88
2022/01/24 03:05:36;;;;;;;;;;;;;;;4.88;63.97;101120.50;5120250;27;1472;-88
2022/01/24 03:08:03;;;;;;;;;;;;;;;4.88;64.04;101109.81;5120688;27;1195;-89
2022/01/24 03:10:36;;;;;;;;;;;;;;;4.90;63.95;101104.28;5120968;27;1375;-88
2022/01/24 03:13:17;;;;;;;;;;;;;;;4.89;64.07;101105.31;5121488;27;1386;-88
2022/01/24 03:15:44;;;;;;;;;;;;;;;4.88;64.08;101096.47;5121004;27;1263;-88
2022/01/24 03:18:11;;;;;;;;;;;;;;;4.88;64.04;101098.28;5120379;27;1214;-88
2022/01/24 03:20:37;;;;;;;;;;;;;;;4.87;63.88;101102.78;5128363;27;1906;-88
2022/01/24 03:23:04;;;;;;;;;;;;;;;4.88;63.92;101096.47;5120623;27;1175;-88
2022/01/24 03:25:30;;;;;;;;;;;;;;;4.87;64.06;101097.47;5120513;27;1202;-88
2022/01/24 03:27:57;;;;;;;;;;;;;;;4.85;64.04;101093.28;5121399;27;1492;-89
2022/01/24 03:30:24;;;;;;;;;;;;;;;4.85;64.18;101093.28;5120779;27;1250;-89
2022/01/24 03:32:50;;;;;;;;;;;;;;;4.86;63.89;101089.63;5138247;27;1523;-89
2022/01/24 03:35:17;;;;;;;;;;;;;;;4.85;63.98;101086.09;5140944;27;1238;-90
2022/01/24 03:37:43;;;;;;;;;;;;;;;4.86;63.80;101082.47;5140954;27;1298;-89
2022/01/24 03:40:10;;;;;;;;;;;;;;;4.84;64.10;101073.78;5140528;27;1982;-88
2022/01/24 03:42:36;;;;;;;;;;;;;;;4.83;64.13;101061.44;5159140;27;947;-88
2022/01/24 03:45:05;;;;;;;;;;;;;;;4.82;63.98;101058.94;5140803;27;1487;-88
2022/01/24 03:47:43;;;;;;;;;;;;;;;4.81;64.12;101057.28;5137180;27;1409;-88
2022/01/24 03:50:11;;;;;;;;;;;;;;;4.82;64.02;101054.41;5120319;27;1308;-89
2022/01/24 03:52:38;;;;;;;;;;;;;;;4.82;63.94;101051.75;5120082;27;1183;-89
2022/01/24 03:55:04;;;;;;;;;;;;;;;4.83;64.04;101060.63;5154272;27;1198;-89
2022/01/24 03:57:31;;;;;;;;;;;;;;;4.77;64.11;101060.28;5119915;27;1338;-88
2022/01/24 03:59:57;;;;;;;;;;;;;;;4.76;64.26;101055.97;5119982;27;1909;-88
2022/01/24 04:02:24;;;;;;;;;;;;;;;4.78;64.12;101059.28;5118926;28;1717;-88
2022/01/24 04:04:50;;;;;;;;;;;;;;;4.80;64.09;101061.78;5119898;27;1313;-89
2022/01/24 04:07:17;;;;;;;;;;;;;;;4.77;64.15;101048.78;5134662;27;1485;-90
2022/01/24 04:09:44;;;;;;;;;;;;;;;4.78;64.08;101056.59;5119565;27;1274;-89
2022/01/24 04:12:10;;;;;;;;;;;;;;;4.78;64.19;101064.59;5119376;27;1178;-88
2022/01/24 04:14:40;;;;;;;;;;;;;;;4.77;64.05;101062.13;5126928;27;1748;-88
2022/01/24 04:17:23;;;;;;;;;;;;;;;4.78;64.07;101047.75;5136102;27;1252;-88
2022/01/24 04:22:37;;;;;;;;;;;;;;;4.78;64.11;101048.59;5119599;27;1225;-88
2022/01/24 04:25:05;;;;;;;;;;;;;;;4.76;64.15;101047.09;5119388;27;1366;-88
2022/01/24 04:27:32;;;;;;;;;;;;;;;4.75;64.16;101043.59;5118646;27;1491;-89
2022/01/24 04:29:58;;;;;;;;;;;;;;;4.77;64.07;101038.09;5118816;27;1452;-89
2022/01/24 04:32:25;;;;;;;;;;;;;;;4.77;64.24;101040.78;5119058;27;1281;-88
2022/01/24 04:34:51;;;;;;;;;;;;;;;4.76;64.00;101039.94;5119377;27;1308;-88
2022/01/24 04:37:18;;;;;;;;;;;;;;;4.76;64.14;101039.94;5118757;27;1272;-88
2022/01/24 04:39:44;;;;;;;;;;;;;;;4.76;64.20;101042.63;5118427;27;1910;-88
2022/01/24 04:42:15;;;;;;;;;;;;;;;4.74;64.23;101039.28;5127864;27;1433;-89
2022/01/24 04:44:55;;;;;;;;;;;;;;;4.76;63.99;101037.28;5139853;27;1364;-88
2022/01/24 04:47:27;;;;;;;;;;;;;;;4.75;63.98;101038.25;5139568;27;1300;-87
2022/01/24 04:52:46;;;;;;;;;;;;;;;4.76;64.11;101034.63;5118799;27;1158;-89
2022/01/24 04:55:13;;;;;;;;;;;;;;;4.77;64.14;101038.09;5131164;27;1429;-90
2022/01/24 04:57:40;;;;;;;;;;;;;;;4.77;63.89;101040.78;5139231;27;1484;-88
2022/01/24 05:00:06;;;;;;;;;;;;;;;4.79;63.97;101041.41;5139366;27;1984;-90
2022/01/24 05:02:33;;;;;;;;;;;;;;;4.77;64.05;101048.78;5139380;27;1246;-89
2022/01/24 05:05:00;;;;;;;;;;;;;;;4.77;64.00;101043.44;5139102;27;1194;-89
2022/01/24 05:07:26;;;;;;;;;;;;;;;4.75;64.16;101040.94;5139398;27;1299;-90
2022/01/24 05:09:59;;;;;;;;;;;;;;;4.76;63.93;101036.41;5126366;27;1540;-89
2022/01/24 05:12:34;;;;;;;;;;;;;;;4.77;63.78;101046.94;5124074;27;1677;-89
2022/01/24 05:23:31;;;;;;;;;;;;;;;4.80;63.78;101044.94;5118460;27;1524;-89
2022/01/24 05:25:58;;;;;;;;;;;;;;;4.75;64.13;101048.94;5138685;27;1289;-88
2022/01/24 05:28:24;;;;;;;;;;;;;;;4.75;64.12;101056.13;5138874;27;1267;-88
2022/01/24 05:30:51;;;;;;;;;;;;;;;4.74;64.21;101057.97;5139068;27;1187;-89
2022/01/24 05:33:17;;;;;;;;;;;;;;;4.73;64.15;101058.94;5139130;27;1203;-90
2022/01/24 05:35:44;;;;;;;;;;;;;;;4.71;64.13;101060.97;5138561;27;1289;-89
2022/01/24 05:38:10;;;;;;;;;;;;;;;4.74;64.18;101059.78;5118366;28;1420;-88
2022/01/24 05:40:37;;;;;;;;;;;;;;;4.71;64.07;101054.78;5117558;28;1974;-89
2022/01/24 05:43:04;;;;;;;;;;;;;;;4.72;64.22;101059.13;5138214;28;1356;-88
2022/01/24 05:45:30;;;;;;;;;;;;;;;4.73;64.11;101058.94;5133952;28;1190;-89
2022/01/24 05:47:57;;;;;;;;;;;;;;;4.72;63.96;101057.28;5125831;28;1555;-87
2022/01/24 05:50:24;;;;;;;;;;;;;;;4.74;64.13;101065.97;5120315;28;1218;-88
2022/01/24 05:52:50;;;;;;;;;;;;;;;4.75;64.12;101074.78;5118418;28;1297;-89
2022/01/24 05:55:17;;;;;;;;;;;;;;;4.72;64.13;101075.13;5118399;28;1352;-89
2022/01/24 05:57:43;;;;;;;;;;;;;;;4.73;64.21;101068.78;5127995;27;1449;-89
2022/01/24 06:00:10;;;;;;;;;;;;;;;4.69;64.16;101067.47;5138746;27;1910;-89
2022/01/24 06:02:36;;;;;;;;;;;;;;;4.70;64.14;101064.59;5138827;27;1210;-89
2022/01/24 06:05:03;;;;;;;;;;;;;;;4.71;64.22;101068.13;5138486;27;1218;-88
2022/01/24 06:07:29;;;;;;;;;;;;;;;4.69;64.19;101067.47;5123530;28;1584;-89
2022/01/24 06:09:56;;;;;;;;;;;;;;;4.68;64.30;101061.31;5118225;28;1255;-90
2022/01/24 06:12:23;;;;;;;;;;;;;;;4.70;64.25;101053.09;5118077;28;1187;-89
2022/01/24 06:14:50;;;;;;;;;;;;;;;4.69;64.20;101057.63;5117768;28;1504;-90
2022/01/24 06:17:17;;;;;;;;;;;;;;;4.70;64.05;101061.94;5131141;27;1281;-90
2022/01/24 06:19:44;;;;;;;;;;;;;;;4.68;64.29;101063.97;5118721;28;1968;-89
2022/01/24 06:22:10;;;;;;;;;;;;;;;4.68;64.18;101058.63;5117509;28;1484;-88
2022/01/24 06:24:37;;;;;;;;;;;;;;;4.68;64.05;101055.97;5131610;27;1212;-88
2022/01/24 06:27:03;;;;;;;;;;;;;;;4.69;64.27;101056.78;5137518;27;1380;-89
2022/01/24 06:29:30;;;;;;;;;;;;;;;4.70;64.29;101056.59;5122088;27;1218;-89
2022/01/24 06:31:57;;;;;;;;;;;;;;;4.71;64.01;101057.47;5121829;27;1559;-88
2022/01/24 06:34:23;;;;;;;;;;;;;;;4.70;64.14;101061.94;5136653;27;1586;-89
2022/01/24 06:36:50;;;;;;;;;;;;;;;4.72;63.85;101061.78;5121382;27;1222;-88
2022/01/24 06:39:17;;;;;;;;;;;;;;;4.73;63.98;101066.13;5135312;27;1392;-89
2022/01/24 06:41:51;;;;;;;;;;;;;;;4.71;63.95;101065.47;5141981;27;1901;-89
2022/01/24 06:44:18;;;;;;;;;;;;;;;4.72;64.14;101056.44;5141964;27;1269;-89
2022/01/24 06:46:45;;;;;;;;;;;;;;;4.72;64.04;101065.28;5140842;27;1333;-89
2022/01/24 06:49:12;;;;;;;;;;;;;;;4.72;64.01;101073.28;5121410;27;1206;-89
2022/01/24 06:51:38;;;;;;;;;;;;;;;4.74;64.04;101078.47;5121576;27;1326;-89
2022/01/24 06:54:05;;;;;;;;;;;;;;;4.75;64.04;101077.47;5121711;27;1271;-88
2022/01/24 06:56:31;;;;;;;;;;;;;;;4.73;64.00;101085.63;5132111;27;1563;-89
2022/01/24 06:58:58;;;;;;;;;;;;;;;4.73;64.06;101074.13;5142715;27;1325;-89
2022/01/24 07:01:24;;;;;;;;;;;;;;;4.72;63.96;101089.31;5127823;27;1905;-88
2022/01/24 07:03:51;;;;;;;;;;;;;;;4.73;64.09;101074.94;5120850;27;1239;-90
2022/01/24 07:06:17;;;;;;;;;;;;;;;4.74;63.94;101075.81;5120715;27;1279;-89
2022/01/24 07:08:44;;;;;;;;;;;;;;;4.75;63.97;101082.81;5120624;27;1851;-89
2022/01/24 07:11:10;;;;;;;;;;;;;;;4.74;63.97;101078.47;5136952;27;1732;-90
2022/01/24 07:13:37;;;;;;;;;;;;;;;4.72;64.02;101081.28;5141490;27;1243;-88
2022/01/24 07:16:06;;;;;;;;;;;;;;;4.73;63.97;101074.94;5138216;27;1669;-88
2022/01/24 07:21:16;;;;;;;;;;;;;;;4.74;64.04;101068.63;5140911;27;1968;-89
2022/01/24 07:23:43;;;;;;;;;;;;;;;4.73;64.03;101069.59;5140430;27;1727;-88
2022/01/24 07:26:10;;;;;;;;;;;;;;;4.73;63.98;101066.13;5140991;27;1310;-90
2022/01/24 07:28:36;;;;;;;;;;;;;;;4.73;63.96;101058.94;5140936;27;1155;-89
2022/01/24 07:31:03;;;;;;;;;;;;;;;4.72;63.83;101057.28;5141546;27;1215;-88
2022/01/24 07:33:29;;;;;;;;;;;;;;;4.70;64.05;101048.59;5137325;27;1193;-89
2022/01/24 07:35:56;;;;;;;;;;;;;;;4.71;64.20;101054.78;5120386;27;1279;-89
2022/01/24 07:38:22;;;;;;;;;;;;;;;4.72;63.90;101059.13;5120135;27;1516;-89
2022/01/24 07:40:51;;;;;;;;;;;;;;;4.72;64.13;101054.63;5136601;27;1910;-88
2022/01/24 07:43:17;;;;;;;;;;;;;;;4.71;63.90;101052.97;5120025;27;1416;-88
2022/01/24 07:45:44;;;;;;;;;;;;;;;4.72;63.96;101056.44;5120278;27;1238;-88
2022/01/24 07:48:10;;;;;;;;;;;;;;;4.70;64.14;101053.09;5119732;27;1198;-90
2022/01/24 07:50:37;;;;;;;;;;;;;;;4.71;64.21;101065.47;5119871;27;1365;-89
2022/01/24 07:53:03;;;;;;;;;;;;;;;4.70;64.00;101063.78;5135082;27;1581;-90
2022/01/24 07:55:30;;;;;;;;;;;;;;;4.70;64.20;101066.44;5157583;27;1184;-89
2022/01/24 07:57:56;;;;;;;;;;;;;;;4.69;64.09;101081.63;5140321;27;1186;-88
2022/01/24 08:00:23;;;;;;;;;;;;;;;4.69;64.22;101064.78;5140762;27;1901;-89
2022/01/24 08:02:49;;;;;;;;;;;;;;;4.70;63.95;101063.78;5140668;27;1304;-89
2022/01/24 08:05:16;;;;;;;;;;;;;;;4.69;64.09;101057.63;5139793;27;1447;-88
2022/01/24 08:07:43;;;;;;;;;;;;;;;4.68;64.17;101058.63;5123621;27;1471;-88
2022/01/24 08:10:09;;;;;;;;;;;;;;;4.66;64.34;101052.63;5119545;27;1322;-88
2022/01/24 08:12:38;;;;;;;;;;;;;;;4.66;64.12;101049.94;5119477;27;1199;-89
2022/01/24 08:15:04;;;;;;;;;;;;;;;4.68;64.17;101047.97;5119531;27;1288;-88
2022/01/24 08:17:31;;;;;;;;;;;;;;;4.67;64.29;101037.44;5119379;27;1216;-88
2022/01/24 08:19:57;;;;;;;;;;;;;;;4.66;64.25;101033.94;5125229;27;1519;-89
2022/01/24 08:22:24;;;;;;;;;;;;;;;4.68;64.26;101047.13;5139762;27;1967;-87
2022/01/24 08:24:51;;;;;;;;;;;;;;;4.66;64.22;101047.28;5140335;27;1467;-88
2022/01/24 08:27:18;;;;;;;;;;;;;;;4.67;64.15;101029.44;5139873;27;1234;-88
2022/01/24 08:29:45;;;;;;;;;;;;;;;4.66;64.20;101025.13;5139971;27;1301;-89
2022/01/24 08:32:12;;;;;;;;;;;;;;;4.68;64.02;101023.94;5138942;27;1525;-89
2022/01/24 08:34:38;;;;;;;;;;;;;;;4.67;64.18;101019.59;5140004;27;1250;-88
2022/01/24 08:37:05;;;;;;;;;;;;;;;4.66;64.17;101033.94;5139375;27;1298;-88
2022/01/24 08:39:31;;;;;;;;;;;;;;;4.68;64.23;101017.78;5139454;27;1321;-89
2022/01/24 08:42:08;;;;;;;;;;;;;;;4.66;64.19;101011.78;5135307;27;1890;-89
2022/01/24 08:47:15;;;;;;;;;;;;;;;4.66;64.12;101007.25;5118009;27;1259;-89
2022/01/24 08:49:42;;;;;;;;;;;;;;;4.65;64.24;101013.63;5118383;27;1329;-89
2022/01/24 08:52:09;;;;;;;;;;;;;;;4.68;63.92;101025.78;5118653;27;1254;-88
2022/01/24 08:54:35;;;;;;;;;;;;;;;4.68;64.13;101020.44;5119151;27;1297;-87
2022/01/24 08:57:02;;;;;;;;;;;;;;;4.68;64.04;101015.94;5120635;27;1484;-89
2022/01/24 08:59:30;;;;;;;;;;;;;;;4.70;64.01;101005.91;5118909;27;1349;-88
2022/01/24 09:01:57;;;;;;;;;;;;;;;4.71;64.02;101007.59;5118494;27;1975;-89
2022/01/24 09:04:23;;;;;;;;;;;;;;;4.69;64.05;101008.75;5118382;27;1495;-89
2022/01/24 09:06:50;;;;;;;;;;;;;;;4.71;64.07;101009.44;5118557;27;1217;-90
2022/01/24 09:09:16;;;;;;;;;;;;;;;4.68;64.18;101001.78;5135617;27;1184;-89
2022/01/24 09:11:43;;;;;;;;;;;;;;;4.69;64.16;101009.59;5139224;27;1380;-89
2022/01/24 09:14:09;;;;;;;;;;;;;;;4.69;64.06;100998.09;5139151;27;1301;-88
2022/01/24 09:16:36;;;;;;;;;;;;;;;4.70;64.02;100994.41;5134705;27;1531;-89
2022/01/24 09:19:03;;;;;;;;;;;;;;;4.67;64.03;100990.25;5118718;27;1189;-88
2022/01/24 09:21:29;;;;;;;;;;;;;;;4.69;63.98;100988.25;5118190;27;1890;-89
2022/01/24 09:23:56;;;;;;;;;;;;;;;4.71;64.24;100990.75;5134900;27;1198;-89
2022/01/24 09:26:22;;;;;;;;;;;;;;;4.69;64.05;100993.56;5135165;27;1237;-89
2022/01/24 09:28:49;;;;;;;;;;;;;;;4.69;63.93;100992.75;5118364;27;1310;-89
2022/01/24 09:31:15;;;;;;;;;;;;;;;4.71;64.04;100990.75;5128829;27;1435;-90
2022/01/24 09:33:42;;;;;;;;;;;;;;;4.69;64.10;100980.25;5120631;27;1483;-87
2022/01/24 09:36:09;;;;;;;;;;;;;;;4.69;63.99;100982.91;5118364;27;1361;-89
2022/01/24 09:38:36;;;;;;;;;;;;;;;4.69;64.15;100998.91;5118252;28;1282;-89
2022/01/24 09:41:02;;;;;;;;;;;;;;;4.70;64.19;101002.41;5117846;28;1977;-89
2022/01/24 09:43:29;;;;;;;;;;;;;;;4.68;64.06;101005.25;5118285;28;1230;-89
2022/01/24 09:45:55;;;;;;;;;;;;;;;4.68;64.13;101002.59;5126052;28;1397;-89
2022/01/24 09:48:22;;;;;;;;;;;;;;;4.69;64.14;101014.94;5130559;28;1484;-88
2022/01/24 09:50:51;;;;;;;;;;;;;;;4.69;64.23;101019.44;5118287;28;1215;-90
2022/01/24 09:53:17;;;;;;;;;;;;;;;4.68;64.07;101023.94;5118019;28;1214;-87
2022/01/24 09:55:44;;;;;;;;;;;;;;;4.69;64.22;101022.09;5117891;28;1260;-90
2022/01/24 09:58:10;;;;;;;;;;;;;;;4.67;64.28;101016.09;5117863;28;1170;-89
2022/01/24 10:00:37;;;;;;;;;;;;;;;4.67;64.38;101013.44;5145860;27;1905;-89
2022/01/24 10:03:04;;;;;;;;;;;;;;;4.65;64.13;101024.28;5142459;27;1197;-89
2022/01/24 10:05:33;;;;;;;;;;;;;;;4.67;64.21;101018.75;5139138;27;1302;-87
2022/01/24 10:07:59;;;;;;;;;;;;;;;4.66;64.30;101023.28;5140089;27;1173;-88
2022/01/24 10:10:26;;;;;;;;;;;;;;;4.66;64.37;101022.44;5142352;27;1524;-89
2022/01/24 10:18:21;;;;;;;;;;;;;;;4.67;64.33;101008.91;5121940;27;1257;-89
2022/01/24 10:20:48;;;;;;;;;;;;;;;4.68;64.21;100999.09;5139187;27;1984;-89
2022/01/24 10:23:15;;;;;;;;;;;;;;;4.67;64.37;101000.09;5142208;27;1238;-89
2022/01/24 10:25:42;;;;;;;;;;;;;;;4.69;64.20;101001.59;5137516;27;1515;-88
2022/01/24 10:28:09;;;;;;;;;;;;;;;4.68;64.23;100999.94;5135688;27;1290;-88
2022/01/24 10:30:35;;;;;;;;;;;;;;;4.69;64.35;100998.09;5122137;27;1655;-89
2022/01/24 10:33:04;;;;;;;;;;;;;;;4.70;64.34;101011.25;5121610;27;1120;-89
2022/01/24 10:35:31;;;;;;;;;;;;;;;4.70;64.24;101000.56;5121936;27;1218;-89
2022/01/24 10:37:57;;;;;;;;;;;;;;;4.72;64.09;100997.75;5136604;27;1669;-89
2022/01/24 10:40:24;;;;;;;;;;;;;;;4.71;64.25;100999.59;5141688;27;1340;-89
2022/01/24 10:42:55;;;;;;;;;;;;;;;4.72;64.25;100997.75;5141008;27;1994;-89
2022/01/24 10:45:22;;;;;;;;;;;;;;;4.71;64.14;100991.59;5121173;27;1170;-89
2022/01/24 10:47:50;;;;;;;;;;;;;;;4.71;64.27;100998.75;5135019;27;1218;-89
2022/01/24 10:50:17;;;;;;;;;;;;;;;4.70;64.34;100995.22;5126336;27;1501;-89
2022/01/24 10:52:43;;;;;;;;;;;;;;;4.70;64.42;101003.25;5137989;27;1248;-90
2022/01/24 10:55:10;;;;;;;;;;;;;;;4.72;64.23;101001.25;5121118;27;1187;-89
2022/01/24 10:57:36;;;;;;;;;;;;;;;4.72;64.41;101000.41;5121362;27;1213;-89
2022/01/24 11:00:03;;;;;;;;;;;;;;;4.71;64.46;100998.75;5120910;27;1316;-89
2022/01/24 11:02:29;;;;;;;;;;;;;;;4.72;64.40;101001.25;5121059;27;1905;-88
2022/01/24 11:04:56;;;;;;;;;;;;;;;4.73;64.31;101000.22;5123957;27;1543;-88
2022/01/24 11:07:22;;;;;;;;;;;;;;;4.74;64.38;101007.25;5141305;27;1220;-89
2022/01/24 11:09:49;;;;;;;;;;;;;;;4.74;64.29;100991.25;5141469;27;1387;-89
2022/01/24 11:12:18;;;;;;;;;;;;;;;4.72;64.44;101003.09;5137590;27;1206;-89
2022/01/24 11:14:44;;;;;;;;;;;;;;;4.74;64.48;101001.91;5140524;27;1285;-89
2022/01/24 11:17:12;;;;;;;;;;;;;;;4.74;64.58;101001.91;5141845;27;1367;-89
2022/01/24 11:19:42;;;;;;;;;;;;;;;4.75;64.69;101006.25;5140805;27;1519;-88
2022/01/24 11:22:18;;;;;;;;;;;;;;;4.73;64.72;101000.22;5139106;27;1984;-90
2022/01/24 11:24:51;;;;;;;;;;;;;;;4.75;64.60;100992.06;5121131;27;1218;-89
2022/01/24 11:27:17;;;;;;;;;;;;;;;4.75;65.14;100995.56;5120269;27;1332;-88
2022/01/24 11:29:44;;;;;;;;;;;;;;;4.76;64.61;100999.91;5120679;27;1209;-89
2022/01/24 11:32:11;;;;;;;;;;;;;;;4.76;64.78;100985.72;5137782;27;1547;-88
2022/01/24 11:34:38;;;;;;;;;;;;;;;4.77;64.79;100984.72;5121388;27;1303;-89
2022/01/24 11:37:04;;;;;;;;;;;;;;;4.76;64.74;100980.38;5157168;27;1221;-89
2022/01/24 11:39:31;;;;;;;;;;;;;;;4.76;64.81;100983.91;5141016;27;1333;-88
2022/01/24 11:41:57;;;;;;;;;;;;;;;4.77;64.53;100985.56;5140092;27;1913;-89
2022/01/24 11:44:26;;;;;;;;;;;;;;;4.77;64.68;100979.41;5141001;27;1210;-89
2022/01/24 11:46:55;;;;;;;;;;;;;;;4.74;64.85;100969.88;5154036;27;1241;-89
2022/01/24 11:49:21;;;;;;;;;;;;;;;4.77;64.76;100969.53;5140582;27;1166;-88
2022/01/24 11:51:49;;;;;;;;;;;;;;;4.77;65.04;100972.22;5136914;27;1293;-90
2022/01/24 11:54:16;;;;;;;;;;;;;;;4.78;65.02;100965.88;5137337;27;1465;-89
2022/01/24 11:56:42;;;;;;;;;;;;;;;4.74;65.02;100961.88;5132199;27;1448;-89
2022/01/24 11:59:09;;;;;;;;;;;;;;;4.77;65.02;100952.72;5140655;27;1200;-89
2022/01/24 12:01:36;;;;;;;;;;;;;;;4.78;64.99;100943.69;5136997;27;1894;-89
2022/01/24 12:04:03;;;;;;;;;;;;;;;4.77;65.04;100950.88;5119673;27;1207;-89
2022/01/24 12:06:29;;;;;;;;;;;;;;;4.80;65.06;100951.53;5137048;27;1322;-89
2022/01/24 12:08:56;;;;;;;;;;;;;;;4.80;65.07;100956.88;5120415;27;1420;-89
2022/01/24 12:11:24;;;;;;;;;;;;;;;4.80;65.05;100941.69;5119499;27;1315;-89
2022/01/24 12:13:53;;;;;;;;;;;;;;;4.81;65.13;100938.00;5119549;27;1177;-88
2022/01/24 12:16:20;;;;;;;;;;;;;;;4.80;65.04;100931.00;5119652;27;1203;-88
2022/01/24 12:18:47;;;;;;;;;;;;;;;4.80;65.09;100931.00;5119530;27;1277;-88
2022/01/24 12:21:14;;;;;;;;;;;;;;;4.80;65.27;100933.69;5123527;27;1971;-88
2022/01/24 12:23:41;;;;;;;;;;;;;;;4.80;65.36;100931.00;5139495;27;1187;-88
2022/01/24 12:26:08;;;;;;;;;;;;;;;4.81;65.19;100937.19;5139858;27;1182;-88
2022/01/24 12:28:34;;;;;;;;;;;;;;;4.81;65.26;100934.50;5140093;27;1222;-88
2022/01/24 12:31:01;;;;;;;;;;;;;;;4.82;65.34;100933.50;5135745;27;1512;-89
2022/01/24 12:33:27;;;;;;;;;;;;;;;4.81;65.26;100923.84;5119000;27;1246;-88
2022/01/24 12:35:54;;;;;;;;;;;;;;;4.82;65.40;100931.66;5118950;27;1329;-88
2022/01/24 12:38:20;;;;;;;;;;;;;;;4.83;65.26;100927.16;5132990;27;1567;-88
2022/01/24 12:40:48;;;;;;;;;;;;;;;4.83;65.20;100924.50;5139381;27;1403;-88
2022/01/24 12:43:28;;;;;;;;;;;;;;;4.85;65.36;100930.47;5126246;27;1984;-89
2022/01/24 12:48:39;;;;;;;;;;;;;;;4.85;65.19;100933.16;5118893;27;1244;-88
2022/01/24 12:51:07;;;;;;;;;;;;;;;4.84;65.45;100926.97;5119208;27;1369;-88
2022/01/24 12:53:33;;;;;;;;;;;;;;;4.84;65.22;100921.66;5138717;27;1372;-90
2022/01/24 12:56:00;;;;;;;;;;;;;;;4.86;65.22;100924.97;5139298;27;1296;-89
2022/01/24 12:58:27;;;;;;;;;;;;;;;4.85;65.21;100914.47;5139187;27;1373;-89
2022/01/24 13:00:53;;;;;;;;;;;;;;;4.87;65.25;100907.94;5139173;27;1312;-88
2022/01/24 13:03:20;;;;;;;;;;;;;;;4.88;65.36;100914.13;5132258;27;1902;-89
2022/01/24 13:05:47;;;;;;;;;;;;;;;4.89;65.26;100907.78;5138928;27;1703;-89
2022/01/24 13:08:13;;;;;;;;;;;;;;;4.89;65.35;100897.13;5118818;27;1274;-88
2022/01/24 13:10:40;;;;;;;;;;;;;;;4.88;65.46;100898.09;5136915;27;994;-88
2022/01/24 13:13:10;;;;;;;;;;;;;;;4.87;65.39;100894.59;5118335;27;1292;-88
2022/01/24 13:21:15;;;;;;;;;;;;;;;4.91;65.35;100887.94;5139465;27;1173;-89
2022/01/24 13:23:44;;;;;;;;;;;;;;;4.92;65.65;100888.75;5138796;27;1905;-89
2022/01/24 13:26:11;;;;;;;;;;;;;;;4.92;65.54;100897.59;5139308;27;1210;-89
2022/01/24 13:28:37;;;;;;;;;;;;;;;4.92;65.71;100897.59;5128577;27;1495;-89
2022/01/24 13:31:05;;;;;;;;;;;;;;;4.92;65.62;100891.44;5137897;27;1537;-88
2022/01/24 13:33:32;;;;;;;;;;;;;;;4.93;65.50;100877.06;5138531;27;1254;-89
2022/01/24 13:35:59;;;;;;;;;;;;;;;4.94;65.54;100873.38;5118115;27;1274;-88
2022/01/24 13:38:26;;;;;;;;;;;;;;;4.93;65.59;100872.56;5117865;27;1409;-87
2022/01/24 13:40:57;;;;;;;;;;;;;;;4.96;65.53;100874.03;5118047;28;1684;-89
2022/01/24 13:43:24;;;;;;;;;;;;;;;4.95;65.76;100862.53;5118058;28;1909;-89
2022/01/24 13:45:50;;;;;;;;;;;;;;;4.95;65.70;100875.88;5118077;28;1226;-89
2022/01/24 13:48:17;;;;;;;;;;;;;;;4.95;65.37;100875.88;5118414;27;1314;-88
2022/01/24 13:50:43;;;;;;;;;;;;;;;4.97;65.81;100868.53;5138815;27;1264;-88
2022/01/24 13:53:10;;;;;;;;;;;;;;;4.96;65.70;100864.19;5139058;27;1360;-87
2022/01/24 13:55:36;;;;;;;;;;;;;;;4.97;65.72;100871.22;5134041;28;1802;-89
2022/01/24 13:58:05;;;;;;;;;;;;;;;4.97;65.72;100883.69;5132152;28;1605;-90
2022/01/24 14:00:31;;;;;;;;;;;;;;;4.97;65.80;100881.91;5118067;28;1105;-89
2022/01/24 14:02:58;;;;;;;;;;;;;;;4.97;65.82;100883.69;5117814;28;1974;-89
2022/01/24 14:05:24;;;;;;;;;;;;;;;4.97;65.83;100887.22;5118040;28;1092;-90
2022/01/24 14:07:51;;;;;;;;;;;;;;;4.98;65.82;100890.72;5117903;27;1605;-89
2022/01/24 14:10:17;;;;;;;;;;;;;;;4.97;65.93;100897.91;5138874;27;1209;-89
2022/01/24 14:12:46;;;;;;;;;;;;;;;4.99;65.85;100897.72;5120294;28;1558;-89
2022/01/24 14:15:19;;;;;;;;;;;;;;;4.99;65.73;100903.88;5118072;28;1311;-92
2022/01/24 14:17:53;;;;;;;;;;;;;;;5.00;65.85;100908.25;5117915;28;1206;-90
2022/01/24 14:20:20;;;;;;;;;;;;;;;4.99;65.78;100911.91;5118545;28;1147;-89
2022/01/24 14:22:47;;;;;;;;;;;;;;;5.00;65.95;100913.56;5117281;27;1906;-88
2022/01/24 14:25:13;;;;;;;;;;;;;;;5.00;65.84;100916.25;5117933;28;1335;-90